x

South Hatteras - 225 South Of Cape Hatteras (41002) Wave Buoy

10:50pm - Tue 23rd May 2017 All times are EDT. -4 hours from GMT.

  • Sig Wave height 6.6ft
  • Swell Direction
  • Peak Period 6s
  • Average Period 6s
  • Wind
    25mph, 31mph gusts
  • Sea Temp 76°f
  • Air Temp 77°f
  • Sea Pressure 1011.8mb
  • South Hatteras - 225 South Of Cape Hatteras
  • South Hatteras - 225 South Of Cape Hatteras

More Historic Weather Station data

Upgrade to MSW Pro to gain access to the past 30 days of data for over 8000 Wavebouys and Weather Stations around the globe.

Join Pro

Comparision Forecast

View Surf forecast
   
Tue 05/23 10:50pm 6.5ft 6s 6s 25 31 mph 1011.8mb 76f 77f
9:50pm 6ft 6s 5s 20 25 mph 1011.9mb 76f 77f
8:50pm 5ft 6s 5s 16 20 mph 1012.3mb 76f 77f
7:50pm 5ft 6s 5s 18 20 mph 1012.6mb 76f 77f
6:50pm 5ft 6s 5s 20 22 mph 1011.5mb 76f 77f
5:50pm 5ft 6s 5s 20 25 mph 1012.1mb 76f 77f
4:50pm 4.5ft 6s 5s 20 25 mph 1011.8mb 76f 77f
3:50pm 4.5ft 6s 5s 18 25 mph 1012.3mb 76f 76f
2:50pm 4.5ft 5s 5s 20 25 mph 1013.2mb 76f 77f
1:50pm 4.5ft 5s 5s 18 22 mph 1013.9mb 76f 76f
12:50pm 4.5ft 5s 5s 20 22 mph 1014.6mb 76f 76f
11:50am 4.5ft 5s 5s 20 25 mph 1015.2mb 76f 76f
10:50am 4.5ft 5s 4s 20 25 mph 1015.4mb 76f 76f
9:50am 4ft 5s 4s 22 25 mph 1015.5mb 76f 76f
8:50am 4ft 4s 4s 20 25 mph 1015.2mb 76f 76f
7:50am 3.5ft 4s 4s 18 20 mph 1015.2mb 76f 75f
6:50am 3.5ft 4s 4s 18 20 mph 1015.3mb 76f 75f
5:50am 3.5ft 4s 4s 18 20 mph 1014.8mb 76f 75f
4:50am 3.5ft 8s 5s 18 20 mph 1014.8mb 77f 75f
3:50am 3.5ft 8s 5s 18 20 mph 1015.1mb 76f 75f
2:50am 3ft 8s 5s 16 20 mph 1016mb 76f 75f
1:50am 3ft 8s 5s 16 20 mph 1016.7mb 76f 75f
12:50am 3ft 8s 5s 13 18 mph 1017.9mb 76f 76f
Mon 05/22 11:50pm 3ft 8s 5s 13 16 mph 1018.3mb 77f 76f
10:50pm 3ft 8s 5s 13 18 mph 1018.6mb 77f 76f
9:50pm 3ft 8s 6s 11 16 mph 1018.6mb 77f 76f
8:50pm 3ft 8s 6s 11 16 mph 1017.7mb 78f 76f
7:50pm 3ft 8s 6s 11 13 mph 1017.4mb 78f 76f
6:50pm 3ft 8s 7s 9 11 mph 1016.9mb 78f 76f
5:50pm 2.5ft 8s 6s 9 9 mph 1016.9mb 78f 76f
4:50pm 3.5ft 8s 6s 4 9 mph 1017.5mb 79f 76f
3:50pm 3.5ft 8s 6s 2 4 mph 1018.3mb 79f 76f
2:50pm 3.5ft 8s 7s 4 7 mph 1018.9mb 78f 76f
1:50pm 4ft 8s 7s 4 7 mph 1019.6mb 78f 75f
12:50pm 3.5ft 8s 7s 7 7 mph 1019.8mb 77f 75f
11:50am 3.5ft 8s 6s 7 9 mph 1020.2mb 77f 75f
10:50am 3.5ft 9s 6s 7 9 mph 1020.2mb 77f 75f
9:50am 3.5ft 8s 6s 7 9 mph 1020.3mb 77f 75f
8:50am 3.5ft 10s 6s 9 11 mph 1020.6mb 77f 75f
7:50am 3ft 8s 6s 9 11 mph 1020.4mb 77f 75f
6:50am 3ft 9s 6s 11 11 mph 1020.1mb 77f 75f
5:50am 3ft 8s 6s 11 13 mph 1019.7mb 77f 75f
4:50am 3ft 9s 6s 9 11 mph 1019.5mb 77f 75f
3:50am 2.5ft 9s 6s 11 13 mph 1019.5mb 77f 75f
2:50am 2.5ft 9s 7s 9 11 mph 1019.5mb 78f 76f
1:50am 2.5ft 8s 6s 9 11 mph 1019.9mb 78f 76f
12:50am 2.5ft 8s 6s 4 7 mph 1020.6mb 77f 76f
Sun 05/21 11:50pm 2.5ft 8s 6s 4 7 mph 1020.7mb 78f 76f
10:50pm 2.5ft 9s 6s 4 7 mph 1021.3mb 78f 76f
9:50pm 2.5ft 9s 6s 4 7 mph 1021.2mb 80f 76f
8:50pm 2.5ft 8s 6s  -  2 mph 1021mb 80f 76f
7:50pm 2.5ft 8s 6s 2 2 mph 1020.5mb 80f 76f
6:50pm 2.5ft 6s 6s 2 4 mph 1020mb 80f 77f
5:50pm 2.5ft 8s 6s 2 4 mph 1020.2mb 80f 77f
4:50pm 2ft 8s 6s 2 4 mph 1020.5mb 81f 77f
3:50pm 2ft 8s 6s 4 7 mph 1021.1mb 81f 76f
2:50pm 2.5ft 8s 6s 4 4 mph 1021.8mb 81f 76f
1:50pm 2ft 8s 6s 2 4 mph 1021.9mb 80f 76f
12:50pm 2.5ft 7s 6s 2 4 mph 1022.2mb 79f 76f
11:50am 2ft 8s 6s 4 4 mph 1022.6mb 79f 76f
10:50am 2ft 7s 6s 2 4 mph 1022.5mb 77f 75f
9:50am 2ft 8s 6s 4 7 mph 1023mb 77f 75f
8:50am 2.5ft 7s 6s 4 4 mph 1022.7mb 76f 75f
7:50am 2ft 7s 6s 2 2 mph 1022.5mb 76f 75f
6:50am 2.5ft 7s 6s 2 2 mph 1021.8mb 76f 75f
5:50am 2ft 7s 6s 2 2 mph 1021.3mb 76f 75f
4:50am 2ft 7s  -  4 4 mph 1021.2mb 76f 75f
3:50am 2ft 6s 5s 2 2 mph 1020.9mb 77f 75f
2:50am 2ft 7s 5s 2 2 mph 1021.1mb 78f 76f
1:50am 2.5ft 7s 6s 4 4 mph 1021.2mb 78f 76f
12:50am 2.5ft 6s 5s 4 7 mph 1021.7mb 78f 76f
Sat 05/20 11:50pm 2.5ft 6s 5s 4 7 mph 1021.7mb 78f 76f
10:50pm 2.5ft 8s 5s 4 7 mph 1022.1mb 78f 77f
9:50pm 2.5ft 7s 5s 2 7 mph 1022mb 79f 77f
8:50pm 2.5ft 6s 5s 2 4 mph 1021.4mb 80f 76f
7:50pm 2.5ft 6s 5s 2 4 mph 1021mb 79f 76f
6:50pm 2.5ft 8s 5s 2 4 mph 1020.4mb 79f 77f
5:50pm 2.5ft 7s 5s 2 4 mph 1020.5mb 81f 77f
4:50pm 2.5ft 6s 6s 2 4 mph 1020.8mb 81f 77f
3:50pm 2.5ft 6s 6s 2 2 mph 1020.9mb 81f 77f
2:50pm 2.5ft 8s 6s  -  2 mph 1021.4mb 81f 77f
1:50pm 2.5ft 7s 6s  -  2 mph 1021.8mb 82f 77f
12:50pm 2.5ft 7s 6s 2 4 mph 1021.9mb 81f 76f
11:50am 2.5ft 9s 6s 2 4 mph 1021.6mb 80f 76f
10:50am 2.5ft 7s 6s  -  2 mph 1021.6mb 78f 76f
9:50am 2.5ft 7s 6s 4 7 mph 1021.7mb 76f 75f
8:50am 2.5ft 7s 6s 4 7 mph 1021.5mb 76f 75f
7:50am 2ft 6s 6s 4 4 mph 1021.3mb 76f 75f
6:50am 2.5ft 6s 6s 2 4 mph 1021.2mb 76f 75f
5:50am 2.5ft 8s 6s  -  2 mph 1020.4mb 76f 74f
4:50am 2ft 6s 6s 2 4 mph 1019.9mb 76f 74f